sensor_id;sensor_type;location;lat;lon;timestamp;P1;durP1;ratioP1;P2;durP2;ratioP2
81629;SDS011;71039;49.500;10.418;2023-06-26T00:00:54;3.00;;;2.72;;
81629;SDS011;71039;49.500;10.418;2023-06-26T00:03:19;2.75;;;2.55;;
81629;SDS011;71039;49.500;10.418;2023-06-26T00:05:45;2.15;;;2.05;;
81629;SDS011;71039;49.500;10.418;2023-06-26T00:08:10;2.50;;;2.28;;
81629;SDS011;71039;49.500;10.418;2023-06-26T00:10:36;2.40;;;2.20;;
81629;SDS011;71039;49.500;10.418;2023-06-26T00:13:01;2.55;;;2.35;;
81629;SDS011;71039;49.500;10.418;2023-06-26T00:15:27;2.75;;;2.55;;
81629;SDS011;71039;49.500;10.418;2023-06-26T00:17:52;2.60;;;2.25;;
81629;SDS011;71039;49.500;10.418;2023-06-26T00:20:18;2.42;;;2.22;;
81629;SDS011;71039;49.500;10.418;2023-06-26T00:22:44;2.00;;;1.90;;
81629;SDS011;71039;49.500;10.418;2023-06-26T00:25:09;3.00;;;2.70;;
81629;SDS011;71039;49.500;10.418;2023-06-26T00:27:35;3.38;;;2.80;;
81629;SDS011;71039;49.500;10.418;2023-06-26T00:30:00;2.30;;;2.10;;
81629;SDS011;71039;49.500;10.418;2023-06-26T00:32:26;2.55;;;2.35;;
81629;SDS011;71039;49.500;10.418;2023-06-26T00:34:51;2.30;;;2.10;;
81629;SDS011;71039;49.500;10.418;2023-06-26T00:37:17;2.72;;;2.17;;
81629;SDS011;71039;49.500;10.418;2023-06-26T00:39:42;2.03;;;1.83;;
81629;SDS011;71039;49.500;10.418;2023-06-26T00:42:08;2.58;;;2.38;;
81629;SDS011;71039;49.500;10.418;2023-06-26T00:44:33;1.98;;;1.85;;
81629;SDS011;71039;49.500;10.418;2023-06-26T00:46:59;3.05;;;2.75;;
81629;SDS011;71039;49.500;10.418;2023-06-26T00:49:24;2.67;;;2.40;;
81629;SDS011;71039;49.500;10.418;2023-06-26T00:51:51;2.80;;;2.60;;
81629;SDS011;71039;49.500;10.418;2023-06-26T00:54:17;2.45;;;2.25;;
81629;SDS011;71039;49.500;10.418;2023-06-26T00:56:43;2.75;;;2.53;;
81629;SDS011;71039;49.500;10.418;2023-06-26T00:59:10;3.65;;;2.53;;
81629;SDS011;71039;49.500;10.418;2023-06-26T01:01:36;2.00;;;1.90;;
81629;SDS011;71039;49.500;10.418;2023-06-26T01:04:01;2.60;;;2.40;;
81629;SDS011;71039;49.500;10.418;2023-06-26T01:06:27;2.50;;;2.30;;
81629;SDS011;71039;49.500;10.418;2023-06-26T01:08:54;3.35;;;2.80;;
81629;SDS011;71039;49.500;10.418;2023-06-26T01:11:20;2.90;;;2.70;;
81629;SDS011;71039;49.500;10.418;2023-06-26T01:13:46;2.20;;;2.08;;
81629;SDS011;71039;49.500;10.418;2023-06-26T01:16:11;2.20;;;1.95;;
81629;SDS011;71039;49.500;10.418;2023-06-26T01:18:38;3.17;;;2.80;;
81629;SDS011;71039;49.500;10.418;2023-06-26T01:21:05;2.40;;;2.20;;
81629;SDS011;71039;49.500;10.418;2023-06-26T01:26:26;2.47;;;2.28;;
81629;SDS011;71039;49.500;10.418;2023-06-26T01:28:53;2.53;;;2.42;;
81629;SDS011;71039;49.500;10.418;2023-06-26T01:31:24;2.78;;;2.58;;
81629;SDS011;71039;49.500;10.418;2023-06-26T01:33:53;2.63;;;2.42;;
81629;SDS011;71039;49.500;10.418;2023-06-26T01:36:19;2.65;;;2.45;;
81629;SDS011;71039;49.500;10.418;2023-06-26T01:38:45;2.50;;;2.03;;
81629;SDS011;71039;49.500;10.418;2023-06-26T01:41:10;2.35;;;2.15;;
81629;SDS011;71039;49.500;10.418;2023-06-26T01:43:47;2.40;;;2.20;;
81629;SDS011;71039;49.500;10.418;2023-06-26T01:46:43;2.65;;;2.45;;
81629;SDS011;71039;49.500;10.418;2023-06-26T01:52:28;2.53;;;2.28;;
81629;SDS011;71039;49.500;10.418;2023-06-26T01:57:52;2.95;;;2.72;;
81629;SDS011;71039;49.500;10.418;2023-06-26T02:00:21;2.58;;;2.42;;
81629;SDS011;71039;49.500;10.418;2023-06-26T02:02:49;2.92;;;2.67;;
81629;SDS011;71039;49.500;10.418;2023-06-26T02:05:14;2.90;;;2.67;;
81629;SDS011;71039;49.500;10.418;2023-06-26T02:07:40;3.20;;;2.35;;
81629;SDS011;71039;49.500;10.418;2023-06-26T02:10:06;1.95;;;1.65;;
81629;SDS011;71039;49.500;10.418;2023-06-26T02:12:32;2.83;;;2.63;;
81629;SDS011;71039;49.500;10.418;2023-06-26T02:14:59;2.53;;;2.30;;
81629;SDS011;71039;49.500;10.418;2023-06-26T02:17:24;2.60;;;2.40;;
81629;SDS011;71039;49.500;10.418;2023-06-26T02:19:53;2.58;;;2.38;;
81629;SDS011;71039;49.500;10.418;2023-06-26T02:22:19;2.83;;;2.63;;
81629;SDS011;71039;49.500;10.418;2023-06-26T02:24:46;2.58;;;2.38;;
81629;SDS011;71039;49.500;10.418;2023-06-26T02:27:11;2.53;;;2.33;;
81629;SDS011;71039;49.500;10.418;2023-06-26T02:29:39;3.05;;;2.85;;
81629;SDS011;71039;49.500;10.418;2023-06-26T02:32:07;2.85;;;2.63;;
81629;SDS011;71039;49.500;10.418;2023-06-26T02:34:33;2.95;;;2.75;;
81629;SDS011;71039;49.500;10.418;2023-06-26T02:37:00;2.70;;;2.50;;
81629;SDS011;71039;49.500;10.418;2023-06-26T02:39:26;3.30;;;3.10;;
81629;SDS011;71039;49.500;10.418;2023-06-26T02:41:52;2.33;;;2.13;;
81629;SDS011;71039;49.500;10.418;2023-06-26T02:44:18;3.25;;;3.05;;
81629;SDS011;71039;49.500;10.418;2023-06-26T02:46:44;2.83;;;2.63;;
81629;SDS011;71039;49.500;10.418;2023-06-26T02:49:09;2.80;;;2.60;;
81629;SDS011;71039;49.500;10.418;2023-06-26T02:51:35;3.35;;;3.05;;
81629;SDS011;71039;49.500;10.418;2023-06-26T02:54:07;2.50;;;2.30;;
81629;SDS011;71039;49.500;10.418;2023-06-26T02:56:33;2.70;;;2.50;;
81629;SDS011;71039;49.500;10.418;2023-06-26T02:58:58;3.50;;;2.97;;
81629;SDS011;71039;49.500;10.418;2023-06-26T03:01:25;2.22;;;2.03;;
81629;SDS011;71039;49.500;10.418;2023-06-26T03:03:51;2.78;;;2.58;;
81629;SDS011;71039;49.500;10.418;2023-06-26T03:06:17;3.25;;;3.05;;
81629;SDS011;71039;49.500;10.418;2023-06-26T03:08:44;3.30;;;3.00;;
81629;SDS011;71039;49.500;10.418;2023-06-26T03:11:11;2.65;;;2.45;;
81629;SDS011;71039;49.500;10.418;2023-06-26T03:16:04;2.97;;;2.78;;
81629;SDS011;71039;49.500;10.418;2023-06-26T03:18:30;3.20;;;2.90;;
81629;SDS011;71039;49.500;10.418;2023-06-26T03:20:56;2.28;;;2.10;;
81629;SDS011;71039;49.500;10.418;2023-06-26T03:23:22;3.55;;;3.25;;
81629;SDS011;71039;49.500;10.418;2023-06-26T03:25:48;3.03;;;2.83;;
81629;SDS011;71039;49.500;10.418;2023-06-26T03:28:24;3.20;;;3.00;;
81629;SDS011;71039;49.500;10.418;2023-06-26T03:30:50;2.70;;;2.50;;
81629;SDS011;71039;49.500;10.418;2023-06-26T03:33:16;3.28;;;2.97;;
81629;SDS011;71039;49.500;10.418;2023-06-26T03:35:42;2.88;;;2.67;;
81629;SDS011;71039;49.500;10.418;2023-06-26T03:38:10;3.30;;;3.00;;
81629;SDS011;71039;49.500;10.418;2023-06-26T03:40:36;3.50;;;3.17;;
81629;SDS011;71039;49.500;10.418;2023-06-26T03:43:01;3.50;;;3.20;;
81629;SDS011;71039;49.500;10.418;2023-06-26T03:45:30;2.35;;;2.15;;
81629;SDS011;71039;49.500;10.418;2023-06-26T03:47:55;2.97;;;2.65;;
81629;SDS011;71039;49.500;10.418;2023-06-26T03:50:21;3.03;;;2.72;;
81629;SDS011;71039;49.500;10.418;2023-06-26T03:52:46;3.15;;;2.95;;
81629;SDS011;71039;49.500;10.418;2023-06-26T03:55:12;3.60;;;3.30;;
81629;SDS011;71039;49.500;10.418;2023-06-26T03:57:38;3.47;;;3.17;;
81629;SDS011;71039;49.500;10.418;2023-06-26T04:00:04;3.28;;;2.97;;
81629;SDS011;71039;49.500;10.418;2023-06-26T04:02:39;3.15;;;2.85;;
81629;SDS011;71039;49.500;10.418;2023-06-26T04:05:06;2.47;;;2.30;;
81629;SDS011;71039;49.500;10.418;2023-06-26T04:07:32;3.05;;;2.78;;
81629;SDS011;71039;49.500;10.418;2023-06-26T04:09:58;2.88;;;2.67;;
81629;SDS011;71039;49.500;10.418;2023-06-26T04:12:25;3.05;;;2.75;;
81629;SDS011;71039;49.500;10.418;2023-06-26T04:14:51;4.65;;;2.35;;
81629;SDS011;71039;49.500;10.418;2023-06-26T04:17:16;3.10;;;2.88;;
81629;SDS011;71039;49.500;10.418;2023-06-26T04:19:42;5.40;;;3.25;;
81629;SDS011;71039;49.500;10.418;2023-06-26T04:22:07;3.53;;;3.22;;
81629;SDS011;71039;49.500;10.418;2023-06-26T04:24:33;4.53;;;4.22;;
81629;SDS011;71039;49.500;10.418;2023-06-26T04:26:58;2.80;;;2.60;;
81629;SDS011;71039;49.500;10.418;2023-06-26T04:29:27;3.30;;;3.00;;
81629;SDS011;71039;49.500;10.418;2023-06-26T04:31:53;5.35;;;3.03;;
81629;SDS011;71039;49.500;10.418;2023-06-26T04:34:19;3.17;;;2.97;;
81629;SDS011;71039;49.500;10.418;2023-06-26T04:36:44;2.88;;;2.67;;
81629;SDS011;71039;49.500;10.418;2023-06-26T04:39:10;2.95;;;2.75;;
81629;SDS011;71039;49.500;10.418;2023-06-26T04:41:35;3.20;;;2.90;;
81629;SDS011;71039;49.500;10.418;2023-06-26T04:44:00;4.53;;;3.95;;
81629;SDS011;71039;49.500;10.418;2023-06-26T04:46:26;3.33;;;3.05;;
81629;SDS011;71039;49.500;10.418;2023-06-26T04:48:51;3.83;;;2.70;;
81629;SDS011;71039;49.500;10.418;2023-06-26T04:51:17;3.47;;;3.03;;
81629;SDS011;71039;49.500;10.418;2023-06-26T04:53:42;3.33;;;3.03;;
81629;SDS011;71039;49.500;10.418;2023-06-26T04:56:08;2.90;;;2.70;;
81629;SDS011;71039;49.500;10.418;2023-06-26T04:58:33;3.55;;;3.25;;
81629;SDS011;71039;49.500;10.418;2023-06-26T05:00:59;3.60;;;3.00;;
81629;SDS011;71039;49.500;10.418;2023-06-26T05:03:24;4.20;;;3.25;;
81629;SDS011;71039;49.500;10.418;2023-06-26T05:05:50;3.88;;;3.58;;
81629;SDS011;71039;49.500;10.418;2023-06-26T05:08:21;6.15;;;2.97;;
81629;SDS011;71039;49.500;10.418;2023-06-26T05:10:47;2.70;;;2.50;;
81629;SDS011;71039;49.500;10.418;2023-06-26T05:13:13;7.00;;;3.05;;
81629;SDS011;71039;49.500;10.418;2023-06-26T05:15:39;2.75;;;2.47;;
81629;SDS011;71039;49.500;10.418;2023-06-26T05:18:05;3.28;;;2.75;;
81629;SDS011;71039;49.500;10.418;2023-06-26T05:20:30;5.68;;;2.90;;
81629;SDS011;71039;49.500;10.418;2023-06-26T05:22:56;3.63;;;3.33;;
81629;SDS011;71039;49.500;10.418;2023-06-26T05:25:23;3.28;;;2.97;;
81629;SDS011;71039;49.500;10.418;2023-06-26T05:27:49;3.10;;;2.80;;
81629;SDS011;71039;49.500;10.418;2023-06-26T05:30:15;3.33;;;2.85;;
81629;SDS011;71039;49.500;10.418;2023-06-26T05:32:41;3.58;;;3.28;;
81629;SDS011;71039;49.500;10.418;2023-06-26T05:35:11;5.32;;;3.10;;
81629;SDS011;71039;49.500;10.418;2023-06-26T05:37:37;2.78;;;2.42;;
81629;SDS011;71039;49.500;10.418;2023-06-26T05:40:03;2.75;;;2.45;;
81629;SDS011;71039;49.500;10.418;2023-06-26T05:42:29;3.47;;;3.17;;
81629;SDS011;71039;49.500;10.418;2023-06-26T05:44:55;3.47;;;2.95;;
81629;SDS011;71039;49.500;10.418;2023-06-26T05:47:21;2.85;;;2.63;;
81629;SDS011;71039;49.500;10.418;2023-06-26T05:49:47;3.20;;;2.80;;
81629;SDS011;71039;49.500;10.418;2023-06-26T05:52:12;4.80;;;2.72;;
81629;SDS011;71039;49.500;10.418;2023-06-26T05:54:38;3.33;;;2.83;;
81629;SDS011;71039;49.500;10.418;2023-06-26T05:57:04;4.38;;;2.63;;
81629;SDS011;71039;49.500;10.418;2023-06-26T05:59:33;2.53;;;2.28;;
81629;SDS011;71039;49.500;10.418;2023-06-26T06:02:01;3.55;;;2.28;;
81629;SDS011;71039;49.500;10.418;2023-06-26T06:04:27;2.25;;;2.00;;
81629;SDS011;71039;49.500;10.418;2023-06-26T06:06:53;2.28;;;2.08;;
81629;SDS011;71039;49.500;10.418;2023-06-26T06:09:18;3.20;;;2.55;;
81629;SDS011;71039;49.500;10.418;2023-06-26T06:11:44;2.30;;;1.77;;
81629;SDS011;71039;49.500;10.418;2023-06-26T06:14:09;2.60;;;2.13;;
81629;SDS011;71039;49.500;10.418;2023-06-26T06:16:35;3.58;;;2.25;;
81629;SDS011;71039;49.500;10.418;2023-06-26T06:19:00;2.45;;;1.90;;
81629;SDS011;71039;49.500;10.418;2023-06-26T06:21:26;7.22;;;2.35;;
81629;SDS011;71039;49.500;10.418;2023-06-26T06:23:51;4.53;;;1.90;;
81629;SDS011;71039;49.500;10.418;2023-06-26T06:26:17;3.30;;;2.15;;
81629;SDS011;71039;49.500;10.418;2023-06-26T06:28:42;4.68;;;2.63;;
81629;SDS011;71039;49.500;10.418;2023-06-26T06:31:08;2.65;;;2.03;;
81629;SDS011;71039;49.500;10.418;2023-06-26T06:33:33;5.53;;;2.72;;
81629;SDS011;71039;49.500;10.418;2023-06-26T06:35:59;2.53;;;1.98;;
81629;SDS011;71039;49.500;10.418;2023-06-26T06:38:24;5.68;;;2.25;;
81629;SDS011;71039;49.500;10.418;2023-06-26T06:40:50;5.20;;;2.60;;
81629;SDS011;71039;49.500;10.418;2023-06-26T06:43:16;2.92;;;2.47;;
81629;SDS011;71039;49.500;10.418;2023-06-26T06:45:41;2.30;;;2.10;;
81629;SDS011;71039;49.500;10.418;2023-06-26T06:48:07;2.72;;;2.30;;
81629;SDS011;71039;49.500;10.418;2023-06-26T06:50:33;2.40;;;2.10;;
81629;SDS011;71039;49.500;10.418;2023-06-26T06:52:58;3.20;;;2.50;;
81629;SDS011;71039;49.500;10.418;2023-06-26T06:55:24;3.63;;;2.88;;
81629;SDS011;71039;49.500;10.418;2023-06-26T06:57:49;2.58;;;2.28;;
81629;SDS011;71039;49.500;10.418;2023-06-26T07:00:15;3.13;;;2.47;;
81629;SDS011;71039;49.500;10.418;2023-06-26T07:02:44;3.10;;;2.80;;
81629;SDS011;71039;49.500;10.418;2023-06-26T07:05:11;3.70;;;2.40;;
81629;SDS011;71039;49.500;10.418;2023-06-26T07:10:10;4.55;;;2.17;;
81629;SDS011;71039;49.500;10.418;2023-06-26T07:12:36;2.47;;;2.08;;
81629;SDS011;71039;49.500;10.418;2023-06-26T07:15:03;5.30;;;2.42;;
81629;SDS011;71039;49.500;10.418;2023-06-26T07:17:33;2.92;;;2.10;;
81629;SDS011;71039;49.500;10.418;2023-06-26T07:20:00;4.20;;;2.78;;
81629;SDS011;71039;49.500;10.418;2023-06-26T07:22:26;2.83;;;2.47;;
81629;SDS011;71039;49.500;10.418;2023-06-26T07:24:51;3.22;;;2.70;;
81629;SDS011;71039;49.500;10.418;2023-06-26T07:27:17;3.10;;;2.55;;
81629;SDS011;71039;49.500;10.418;2023-06-26T07:29:43;10.35;;;2.17;;
81629;SDS011;71039;49.500;10.418;2023-06-26T07:32:08;3.30;;;2.13;;
81629;SDS011;71039;49.500;10.418;2023-06-26T07:34:34;2.85;;;2.45;;
81629;SDS011;71039;49.500;10.418;2023-06-26T07:37:00;2.30;;;2.08;;
81629;SDS011;71039;49.500;10.418;2023-06-26T07:39:25;2.40;;;2.17;;
81629;SDS011;71039;49.500;10.418;2023-06-26T07:41:51;3.25;;;2.50;;
81629;SDS011;71039;49.500;10.418;2023-06-26T07:44:16;2.90;;;2.35;;
81629;SDS011;71039;49.500;10.418;2023-06-26T07:46:42;4.78;;;2.53;;
81629;SDS011;71039;49.500;10.418;2023-06-26T07:49:08;2.20;;;1.92;;
81629;SDS011;71039;49.500;10.418;2023-06-26T07:51:33;2.65;;;2.08;;
81629;SDS011;71039;49.500;10.418;2023-06-26T07:53:59;2.60;;;2.40;;
81629;SDS011;71039;49.500;10.418;2023-06-26T07:56:24;3.90;;;2.15;;
81629;SDS011;71039;49.500;10.418;2023-06-26T07:58:50;2.38;;;2.17;;
81629;SDS011;71039;49.500;10.418;2023-06-26T08:01:15;3.25;;;1.92;;
81629;SDS011;71039;49.500;10.418;2023-06-26T08:03:41;2.88;;;2.08;;
81629;SDS011;71039;49.500;10.418;2023-06-26T08:06:06;3.05;;;1.95;;
81629;SDS011;71039;49.500;10.418;2023-06-26T08:08:32;4.05;;;1.88;;
81629;SDS011;71039;49.500;10.418;2023-06-26T08:10:57;2.40;;;2.17;;
81629;SDS011;71039;49.500;10.418;2023-06-26T08:13:23;3.08;;;2.03;;
81629;SDS011;71039;49.500;10.418;2023-06-26T08:15:48;2.42;;;1.95;;
81629;SDS011;71039;49.500;10.418;2023-06-26T08:18:14;3.67;;;2.28;;
81629;SDS011;71039;49.500;10.418;2023-06-26T08:20:39;2.80;;;2.15;;
81629;SDS011;71039;49.500;10.418;2023-06-26T08:23:05;3.05;;;2.35;;
81629;SDS011;71039;49.500;10.418;2023-06-26T08:25:30;3.10;;;2.28;;
81629;SDS011;71039;49.500;10.418;2023-06-26T08:27:56;2.55;;;2.10;;
81629;SDS011;71039;49.500;10.418;2023-06-26T08:30:21;2.35;;;1.92;;
81629;SDS011;71039;49.500;10.418;2023-06-26T08:32:47;2.53;;;2.22;;
81629;SDS011;71039;49.500;10.418;2023-06-26T08:35:12;2.83;;;2.30;;
81629;SDS011;71039;49.500;10.418;2023-06-26T08:37:38;2.60;;;1.92;;
81629;SDS011;71039;49.500;10.418;2023-06-26T08:40:04;2.60;;;2.03;;
81629;SDS011;71039;49.500;10.418;2023-06-26T08:42:31;3.85;;;2.15;;
81629;SDS011;71039;49.500;10.418;2023-06-26T08:44:56;3.47;;;2.13;;
81629;SDS011;71039;49.500;10.418;2023-06-26T08:47:22;2.42;;;2.22;;
81629;SDS011;71039;49.500;10.418;2023-06-26T08:49:51;2.75;;;2.20;;
81629;SDS011;71039;49.500;10.418;2023-06-26T08:52:24;2.20;;;2.00;;
81629;SDS011;71039;49.500;10.418;2023-06-26T08:54:56;3.05;;;1.92;;
81629;SDS011;71039;49.500;10.418;2023-06-26T08:57:23;2.30;;;1.98;;
81629;SDS011;71039;49.500;10.418;2023-06-26T08:59:50;3.63;;;2.10;;
81629;SDS011;71039;49.500;10.418;2023-06-26T09:02:17;2.17;;;1.98;;
81629;SDS011;71039;49.500;10.418;2023-06-26T09:04:43;4.60;;;2.00;;
81629;SDS011;71039;49.500;10.418;2023-06-26T09:07:08;2.35;;;2.15;;
81629;SDS011;71039;49.500;10.418;2023-06-26T09:09:34;2.80;;;2.03;;
81629;SDS011;71039;49.500;10.418;2023-06-26T09:12:01;2.20;;;1.90;;
81629;SDS011;71039;49.500;10.418;2023-06-26T09:14:27;2.47;;;2.25;;
81629;SDS011;71039;49.500;10.418;2023-06-26T09:16:54;2.40;;;2.15;;
81629;SDS011;71039;49.500;10.418;2023-06-26T09:19:20;2.25;;;2.00;;
81629;SDS011;71039;49.500;10.418;2023-06-26T09:21:46;2.45;;;2.22;;
81629;SDS011;71039;49.500;10.418;2023-06-26T09:24:15;3.53;;;2.00;;
81629;SDS011;71039;49.500;10.418;2023-06-26T09:26:41;5.50;;;2.40;;
81629;SDS011;71039;49.500;10.418;2023-06-26T09:29:07;4.40;;;1.83;;
81629;SDS011;71039;49.500;10.418;2023-06-26T09:31:35;2.38;;;2.10;;
81629;SDS011;71039;49.500;10.418;2023-06-26T09:34:03;2.03;;;1.90;;
81629;SDS011;71039;49.500;10.418;2023-06-26T09:36:29;2.80;;;2.13;;
81629;SDS011;71039;49.500;10.418;2023-06-26T09:38:55;2.42;;;2.20;;
81629;SDS011;71039;49.500;10.418;2023-06-26T09:41:21;2.40;;;1.95;;
81629;SDS011;71039;49.500;10.418;2023-06-26T09:43:47;2.65;;;2.10;;
81629;SDS011;71039;49.500;10.418;2023-06-26T09:48:42;2.13;;;1.88;;
81629;SDS011;71039;49.500;10.418;2023-06-26T09:51:07;2.25;;;2.05;;
81629;SDS011;71039;49.500;10.418;2023-06-26T09:53:34;1.98;;;1.70;;
81629;SDS011;71039;49.500;10.418;2023-06-26T09:56:05;2.03;;;1.83;;
81629;SDS011;71039;49.500;10.418;2023-06-26T09:58:31;2.88;;;2.25;;
81629;SDS011;71039;49.500;10.418;2023-06-26T10:00:58;2.08;;;1.80;;
81629;SDS011;71039;49.500;10.418;2023-06-26T10:03:23;2.90;;;2.30;;
81629;SDS011;71039;49.500;10.418;2023-06-26T10:05:49;2.00;;;1.73;;
81629;SDS011;71039;49.500;10.418;2023-06-26T10:08:15;2.00;;;1.73;;
81629;SDS011;71039;49.500;10.418;2023-06-26T10:10:42;1.90;;;1.65;;
81629;SDS011;71039;49.500;10.418;2023-06-26T10:13:16;1.70;;;1.60;;
81629;SDS011;71039;49.500;10.418;2023-06-26T10:15:47;1.90;;;1.55;;
81629;SDS011;71039;49.500;10.418;2023-06-26T10:18:15;2.20;;;2.00;;
81629;SDS011;71039;49.500;10.418;2023-06-26T10:20:43;2.70;;;2.00;;
81629;SDS011;71039;49.500;10.418;2023-06-26T10:23:13;2.30;;;1.90;;
81629;SDS011;71039;49.500;10.418;2023-06-26T10:28:07;3.17;;;1.83;;
81629;SDS011;71039;49.500;10.418;2023-06-26T10:30:35;2.10;;;1.90;;
81629;SDS011;71039;49.500;10.418;2023-06-26T10:35:27;2.25;;;1.92;;
81629;SDS011;71039;49.500;10.418;2023-06-26T10:37:59;2.15;;;1.95;;
81629;SDS011;71039;49.500;10.418;2023-06-26T10:40:27;2.17;;;1.88;;
81629;SDS011;71039;49.500;10.418;2023-06-26T10:43:05;1.98;;;1.67;;
81629;SDS011;71039;49.500;10.418;2023-06-26T10:45:32;2.05;;;1.63;;
81629;SDS011;71039;49.500;10.418;2023-06-26T10:47:59;2.17;;;1.98;;
81629;SDS011;71039;49.500;10.418;2023-06-26T10:55:36;2.65;;;2.13;;
81629;SDS011;71039;49.500;10.418;2023-06-26T10:58:02;2.08;;;1.65;;
81629;SDS011;71039;49.500;10.418;2023-06-26T11:00:28;2.47;;;1.90;;
81629;SDS011;71039;49.500;10.418;2023-06-26T11:02:53;2.13;;;1.80;;
81629;SDS011;71039;49.500;10.418;2023-06-26T11:05:29;2.00;;;1.80;;
81629;SDS011;71039;49.500;10.418;2023-06-26T11:10:29;2.05;;;1.83;;
81629;SDS011;71039;49.500;10.418;2023-06-26T11:12:54;1.75;;;1.63;;
81629;SDS011;71039;49.500;10.418;2023-06-26T11:15:24;3.05;;;1.58;;
81629;SDS011;71039;49.500;10.418;2023-06-26T11:17:51;1.70;;;1.58;;
81629;SDS011;71039;49.500;10.418;2023-06-26T11:20:17;2.65;;;1.70;;
81629;SDS011;71039;49.500;10.418;2023-06-26T11:22:42;2.80;;;1.42;;
81629;SDS011;71039;49.500;10.418;2023-06-26T11:25:08;2.45;;;1.70;;
81629;SDS011;71039;49.500;10.418;2023-06-26T11:30:04;2.40;;;1.65;;
81629;SDS011;71039;49.500;10.418;2023-06-26T11:32:30;2.25;;;1.70;;
81629;SDS011;71039;49.500;10.418;2023-06-26T11:34:56;1.90;;;1.70;;
81629;SDS011;71039;49.500;10.418;2023-06-26T11:37:21;1.77;;;1.42;;
81629;SDS011;71039;49.500;10.418;2023-06-26T11:39:47;2.53;;;1.88;;
81629;SDS011;71039;49.500;10.418;2023-06-26T11:42:12;2.70;;;1.60;;
81629;SDS011;71039;49.500;10.418;2023-06-26T11:44:41;2.55;;;2.00;;
81629;SDS011;71039;49.500;10.418;2023-06-26T11:47:08;1.88;;;1.60;;
81629;SDS011;71039;49.500;10.418;2023-06-26T11:49:44;2.25;;;2.05;;
81629;SDS011;71039;49.500;10.418;2023-06-26T11:52:10;7.80;;;1.83;;
81629;SDS011;71039;49.500;10.418;2023-06-26T11:54:36;2.67;;;1.50;;
81629;SDS011;71039;49.500;10.418;2023-06-26T11:57:01;4.13;;;1.80;;
81629;SDS011;71039;49.500;10.418;2023-06-26T11:59:34;3.38;;;1.70;;
81629;SDS011;71039;49.500;10.418;2023-06-26T12:02:03;1.77;;;1.67;;
81629;SDS011;71039;49.500;10.418;2023-06-26T12:04:30;2.42;;;1.52;;
81629;SDS011;71039;49.500;10.418;2023-06-26T12:06:56;2.00;;;1.60;;
81629;SDS011;71039;49.500;10.418;2023-06-26T12:09:22;2.75;;;1.90;;
81629;SDS011;71039;49.500;10.418;2023-06-26T12:11:50;2.20;;;1.90;;
81629;SDS011;71039;49.500;10.418;2023-06-26T12:14:19;2.53;;;2.05;;
81629;SDS011;71039;49.500;10.418;2023-06-26T12:16:45;2.30;;;2.00;;
81629;SDS011;71039;49.500;10.418;2023-06-26T12:19:11;2.00;;;1.80;;
81629;SDS011;71039;49.500;10.418;2023-06-26T12:24:03;1.70;;;1.60;;
81629;SDS011;71039;49.500;10.418;2023-06-26T12:29:05;1.73;;;1.63;;
81629;SDS011;71039;49.500;10.418;2023-06-26T12:31:30;4.55;;;1.77;;
81629;SDS011;71039;49.500;10.418;2023-06-26T12:33:57;2.20;;;1.90;;
81629;SDS011;71039;49.500;10.418;2023-06-26T12:36:22;2.00;;;1.75;;
81629;SDS011;71039;49.500;10.418;2023-06-26T12:38:48;3.70;;;1.88;;
81629;SDS011;71039;49.500;10.418;2023-06-26T12:41:14;2.78;;;2.10;;
81629;SDS011;71039;49.500;10.418;2023-06-26T12:43:41;2.20;;;1.67;;
81629;SDS011;71039;49.500;10.418;2023-06-26T12:46:07;2.38;;;1.83;;
81629;SDS011;71039;49.500;10.418;2023-06-26T12:48:39;2.80;;;2.38;;
81629;SDS011;71039;49.500;10.418;2023-06-26T12:51:16;3.22;;;2.10;;
81629;SDS011;71039;49.500;10.418;2023-06-26T12:53:42;3.33;;;1.80;;
81629;SDS011;71039;49.500;10.418;2023-06-26T12:56:08;2.38;;;2.10;;
81629;SDS011;71039;49.500;10.418;2023-06-26T12:58:35;3.00;;;2.20;;
81629;SDS011;71039;49.500;10.418;2023-06-26T13:01:02;2.33;;;1.95;;
81629;SDS011;71039;49.500;10.418;2023-06-26T13:03:29;2.50;;;1.98;;
81629;SDS011;71039;49.500;10.418;2023-06-26T13:05:54;2.42;;;2.22;;
81629;SDS011;71039;49.500;10.418;2023-06-26T13:08:20;6.45;;;2.38;;
81629;SDS011;71039;49.500;10.418;2023-06-26T13:10:45;2.88;;;2.13;;
81629;SDS011;71039;49.500;10.418;2023-06-26T13:13:11;7.63;;;1.90;;
81629;SDS011;71039;49.500;10.418;2023-06-26T13:15:37;2.13;;;1.92;;
81629;SDS011;71039;49.500;10.418;2023-06-26T13:18:02;3.58;;;2.05;;
81629;SDS011;71039;49.500;10.418;2023-06-26T13:20:28;3.47;;;2.08;;
81629;SDS011;71039;49.500;10.418;2023-06-26T13:22:54;2.20;;;2.00;;
81629;SDS011;71039;49.500;10.418;2023-06-26T13:25:20;2.50;;;2.13;;
81629;SDS011;71039;49.500;10.418;2023-06-26T13:27:46;2.33;;;1.95;;
81629;SDS011;71039;49.500;10.418;2023-06-26T13:30:12;3.63;;;1.98;;
81629;SDS011;71039;49.500;10.418;2023-06-26T13:32:38;3.28;;;1.80;;
81629;SDS011;71039;49.500;10.418;2023-06-26T13:35:04;2.78;;;2.30;;
81629;SDS011;71039;49.500;10.418;2023-06-26T13:37:31;4.07;;;2.20;;
81629;SDS011;71039;49.500;10.418;2023-06-26T13:39:56;2.97;;;2.55;;
81629;SDS011;71039;49.500;10.418;2023-06-26T13:44:48;2.65;;;2.13;;
81629;SDS011;71039;49.500;10.418;2023-06-26T13:47:14;2.72;;;2.38;;
81629;SDS011;71039;49.500;10.418;2023-06-26T13:49:39;3.40;;;2.50;;
81629;SDS011;71039;49.500;10.418;2023-06-26T13:52:05;2.92;;;2.03;;
81629;SDS011;71039;49.500;10.418;2023-06-26T13:54:31;3.70;;;3.08;;
81629;SDS011;71039;49.500;10.418;2023-06-26T13:56:57;3.13;;;2.45;;
81629;SDS011;71039;49.500;10.418;2023-06-26T13:59:22;5.72;;;2.58;;
81629;SDS011;71039;49.500;10.418;2023-06-26T14:01:48;3.08;;;2.33;;
81629;SDS011;71039;49.500;10.418;2023-06-26T14:04:13;4.57;;;3.33;;
81629;SDS011;71039;49.500;10.418;2023-06-26T14:06:39;5.25;;;2.70;;
81629;SDS011;71039;49.500;10.418;2023-06-26T14:09:04;3.33;;;2.70;;
81629;SDS011;71039;49.500;10.418;2023-06-26T14:11:31;2.53;;;2.20;;
81629;SDS011;71039;49.500;10.418;2023-06-26T14:13:56;2.60;;;2.38;;
81629;SDS011;71039;49.500;10.418;2023-06-26T14:16:22;3.75;;;2.30;;
81629;SDS011;71039;49.500;10.418;2023-06-26T14:18:47;2.63;;;2.40;;
81629;SDS011;71039;49.500;10.418;2023-06-26T14:21:13;2.60;;;2.40;;
81629;SDS011;71039;49.500;10.418;2023-06-26T14:23:38;9.52;;;2.70;;
81629;SDS011;71039;49.500;10.418;2023-06-26T14:26:04;4.85;;;2.88;;
81629;SDS011;71039;49.500;10.418;2023-06-26T14:28:29;3.92;;;2.92;;
81629;SDS011;71039;49.500;10.418;2023-06-26T14:30:55;3.35;;;2.80;;
81629;SDS011;71039;49.500;10.418;2023-06-26T14:33:20;4.05;;;2.92;;
81629;SDS011;71039;49.500;10.418;2023-06-26T14:35:46;4.65;;;3.40;;
81629;SDS011;71039;49.500;10.418;2023-06-26T14:38:11;3.65;;;3.00;;
81629;SDS011;71039;49.500;10.418;2023-06-26T14:40:37;3.72;;;2.38;;
81629;SDS011;71039;49.500;10.418;2023-06-26T14:43:02;4.22;;;3.22;;
81629;SDS011;71039;49.500;10.418;2023-06-26T14:45:28;2.67;;;2.40;;
81629;SDS011;71039;49.500;10.418;2023-06-26T14:47:53;3.05;;;2.53;;
81629;SDS011;71039;49.500;10.418;2023-06-26T14:50:19;5.80;;;2.58;;
81629;SDS011;71039;49.500;10.418;2023-06-26T14:52:44;3.38;;;2.45;;
81629;SDS011;71039;49.500;10.418;2023-06-26T14:55:10;4.90;;;3.13;;
81629;SDS011;71039;49.500;10.418;2023-06-26T14:57:35;3.03;;;2.33;;
81629;SDS011;71039;49.500;10.418;2023-06-26T15:00:01;2.75;;;2.47;;
81629;SDS011;71039;49.500;10.418;2023-06-26T15:02:27;2.53;;;2.33;;
81629;SDS011;71039;49.500;10.418;2023-06-26T15:04:52;3.95;;;2.38;;
81629;SDS011;71039;49.500;10.418;2023-06-26T15:07:18;2.95;;;2.42;;